TimeMST,TemperatureF,Dew PointF,Humidity,Sea Level PressureIn,VisibilityMPH,Wind Direction,Wind SpeedMPH,Gust SpeedMPH,PrecipitationIn,Events,Conditions,WindDirDegrees,DateUTC
12:56 AM,64.9,36.0,34,30.02,10.0,WNW,5.8,-,N/A,,Clear,290,2012-10-05 07:56:00
1:56 AM,64.9,35.1,33,30.01,10.0,ENE,3.5,-,N/A,,Clear,70,2012-10-05 08:56:00
2:56 AM,63.0,35.1,35,30.01,10.0,Calm,Calm,-,N/A,,Clear,0,2012-10-05 09:56:00
3:56 AM,61.0,35.1,38,30.02,10.0,SSE,8.1,-,N/A,,Clear,160,2012-10-05 10:56:00
4:56 AM,61.0,35.1,38,30.02,10.0,ESE,3.5,-,N/A,,Clear,120,2012-10-05 11:56:00
5:55 AM,55.4,32.0,41,30.05,10.0,Calm,Calm,-,N/A,,Mostly Cloudy,0,2012-10-05 12:55:00
6:55 AM,59.0,33.8,39,30.07,10.0,SW,8.1,-,N/A,,Mostly Cloudy,230,2012-10-05 13:55:00
7:55 AM,69.8,35.6,28,30.05,10.0,Calm,Calm,-,N/A,,Scattered Clouds,0,2012-10-05 14:55:00
8:55 AM,75.2,32.0,21,30.05,10.0,Variable,3.5,-,N/A,,Partly Cloudy,0,2012-10-05 15:55:00
9:55 AM,78.8,30.2,17,30.05,10.0,WSW,13.8,-,N/A,,Partly Cloudy,250,2012-10-05 16:55:00
10:55 AM,78.8,30.2,17,30.03,10.0,West,13.8,20.7,N/A,,Partly Cloudy,270,2012-10-05 17:55:00
11:55 AM,82.4,30.2,15,30.01,10.0,West,17.3,25.3,N/A,,Partly Cloudy,280,2012-10-05 18:55:00
12:55 PM,84.2,32.0,15,29.98,10.0,West,17.3,25.3,N/A,,Partly Cloudy,260,2012-10-05 19:55:00
1:55 PM,84.2,32.0,15,29.95,10.0,West,15.0,24.2,N/A,,Partly Cloudy,260,2012-10-05 20:55:00
2:55 PM,84.2,30.2,14,29.94,10.0,West,13.8,23.0,N/A,,Mostly Cloudy,280,2012-10-05 21:55:00
3:55 PM,82.4,30.2,15,29.94,10.0,West,13.8,20.7,N/A,,Mostly Cloudy,270,2012-10-05 22:55:00
4:55 PM,82.4,30.2,15,29.94,10.0,West,12.7,-,N/A,,Mostly Cloudy,270,2012-10-05 23:55:00
5:55 PM,78.8,30.2,17,29.96,10.0,WSW,11.5,-,N/A,,Mostly Cloudy,250,2012-10-06 00:55:00
6:55 PM,73.4,30.2,20,29.98,10.0,WSW,9.2,-,N/A,,Mostly Cloudy,250,2012-10-06 01:55:00
7:55 PM,71.6,32.0,23,29.96,10.0,WSW,11.5,-,N/A,,Mostly Cloudy,240,2012-10-06 02:55:00
8:55 PM,71.6,33.8,25,29.96,10.0,SW,10.4,-,N/A,,Mostly Cloudy,230,2012-10-06 03:55:00
9:55 PM,69.8,32.0,25,29.96,10.0,SW,10.4,-,N/A,,Mostly Cloudy,230,2012-10-06 04:55:00
10:56 PM,69.1,30.9,24,29.95,10.0,SW,9.2,-,N/A,,Clear,230,2012-10-06 05:56:00
11:56 PM,68.0,32.0,26,29.95,10.0,WSW,10.4,-,N/A,,Clear,240,2012-10-06 06:56:00